Albany, New Hampshire
Current Conditions -  °F | °C
As of 7:54 PM on Tuesday 25 Nov 2014 (Local Time) from KIZG Reporting Station
Clear Clear  
Wind Chill: 39°   Ceiling: Unl
Heat Index: 43°   Visibility: 10mi
Dew Point: 24°   Wind: 6mph
Humidity: 47%   Direction: 220°SW
Pressure: 29.97"   Gusts: NA
Location:  43.9735°N, 71.2576°W
Report Text: KIZG 260054Z AUTO 22005KT 10SM CLR 06/M04 A2997 RMK AO2 SLP150 T00611044
Loading
Personal Weather Stations






























Interactive Weather Map New forecast layout! Learn more

10-Day Weather Forecast

Advertisements
Track Severe Weather on mobile